createdAt,value
2022-10-28T00:01:26.944Z,87.77
2022-10-28T00:03:57.071Z,87.89
2022-10-28T00:06:33.911Z,88.19
2022-10-28T00:09:08.337Z,87.99
2022-10-28T00:11:39.521Z,88.13
2022-10-28T00:14:08.192Z,88.14
2022-10-28T00:16:37.873Z,87.92
2022-10-28T00:19:10.545Z,87.82
2022-10-28T00:21:40.391Z,87.72
2022-10-28T00:24:10.188Z,87.78
2022-10-28T00:26:41.517Z,87.74
2022-10-28T00:29:12.412Z,87.87
2022-10-28T00:31:41.435Z,88.13
2022-10-28T00:34:18.303Z,88.36
2022-10-28T00:36:48.379Z,88.49
2022-10-28T00:39:21.802Z,88.72
2022-10-28T00:41:55.468Z,88.70
2022-10-28T00:44:51.425Z,88.73
2022-10-28T00:47:37.529Z,88.78
2022-10-28T00:50:24.043Z,89.06
2022-10-28T00:52:56.480Z,88.91
2022-10-28T00:55:26.011Z,89.01
2022-10-28T00:57:56.761Z,89.12
2022-10-28T01:03:19.086Z,89.19
2022-10-28T01:05:49.379Z,89.31
2022-10-28T01:08:17.835Z,89.11
2022-10-28T01:11:14.293Z,89.26
2022-10-28T01:14:04.685Z,89.29
2022-10-28T01:16:37.583Z,89.28
2022-10-28T01:20:00.300Z,89.40
2022-10-28T01:22:57.267Z,89.54
2022-10-28T01:25:45.213Z,89.66
2022-10-28T01:28:28.162Z,89.49
2022-10-28T01:31:15.263Z,89.65
2022-10-28T01:33:51.342Z,89.56
2022-10-28T01:36:32.129Z,89.58
2022-10-28T01:39:20.219Z,89.72
2022-10-28T01:42:00.012Z,89.67
2022-10-28T01:45:01.530Z,89.85
2022-10-28T01:47:36.542Z,89.98
2022-10-28T01:50:09.799Z,89.85
2022-10-28T01:52:40.502Z,90.06
2022-10-28T01:55:15.901Z,90.06
2022-10-28T01:57:44.100Z,90.00
2022-10-28T02:00:12.855Z,89.95
2022-10-28T02:02:42.778Z,90.18
2022-10-28T02:05:39.544Z,90.17
2022-10-28T02:08:19.905Z,90.36
2022-10-28T02:11:09.111Z,90.50
2022-10-28T02:13:53.631Z,90.41
2022-10-28T02:16:49.218Z,90.37
2022-10-28T02:19:29.010Z,90.49
2022-10-28T02:21:59.572Z,90.55
2022-10-28T02:24:39.642Z,90.51
2022-10-28T02:27:34.440Z,90.48
2022-10-28T02:30:05.255Z,90.59
2022-10-28T02:32:38.983Z,90.48
2022-10-28T02:35:17.289Z,90.44
2022-10-28T02:37:48.486Z,90.28
2022-10-28T02:40:21.865Z,90.54
2022-10-28T02:42:55.281Z,90.65
2022-10-28T02:45:29.990Z,90.43
2022-10-28T02:48:02.311Z,90.54
2022-10-28T02:50:45.325Z,90.67
2022-10-28T02:53:21.251Z,90.65
2022-10-28T02:55:54.332Z,90.74
2022-10-28T02:58:22.714Z,90.83
2022-10-28T03:00:50.925Z,90.70
2022-10-28T03:03:18.625Z,90.72
2022-10-28T03:05:46.717Z,90.82
2022-10-28T03:08:14.587Z,90.85
2022-10-28T03:10:42.165Z,91.00
2022-10-28T03:13:10.500Z,90.89
2022-10-28T03:15:38.255Z,90.65
2022-10-28T03:18:05.982Z,90.64
2022-10-28T03:20:33.856Z,90.67
2022-10-28T03:23:02.454Z,90.75
2022-10-28T03:25:30.179Z,90.68
2022-10-28T03:27:58.138Z,90.60
2022-10-28T03:30:25.958Z,90.59
2022-10-28T03:32:54.046Z,90.83
2022-10-28T03:35:22.130Z,90.75
2022-10-28T03:37:49.959Z,90.75
2022-10-28T03:40:17.574Z,90.80
2022-10-28T03:42:45.912Z,90.68
2022-10-28T03:45:13.806Z,90.86
2022-10-28T03:47:42.792Z,90.76
2022-10-28T03:50:10.847Z,90.69
2022-10-28T03:52:38.656Z,90.78
2022-10-28T03:55:06.618Z,90.87
2022-10-28T03:57:34.510Z,90.85
2022-10-28T04:00:02.583Z,90.67
2022-10-28T04:02:39.696Z,90.87
2022-10-28T04:05:07.862Z,90.61
2022-10-28T04:07:35.764Z,90.79
2022-10-28T04:10:03.962Z,90.81
2022-10-28T04:12:31.706Z,90.75
2022-10-28T04:14:59.347Z,90.71
2022-10-28T04:17:27.394Z,90.61
2022-10-28T04:19:55.344Z,90.68
2022-10-28T04:22:22.998Z,90.43
2022-10-28T04:24:51.199Z,90.51
2022-10-28T04:27:18.991Z,90.38
2022-10-28T04:29:46.776Z,90.39
2022-10-28T04:32:14.757Z,90.59
2022-10-28T04:34:42.621Z,90.61
2022-10-28T04:37:10.207Z,90.42
2022-10-28T04:39:38.023Z,90.42
2022-10-28T04:42:05.894Z,90.68
2022-10-28T04:44:33.533Z,90.68
2022-10-28T04:47:01.418Z,90.57
2022-10-28T04:49:29.326Z,90.59
2022-10-28T04:51:56.936Z,90.63
2022-10-28T04:54:25.055Z,90.69
2022-10-28T04:56:54.524Z,90.55
2022-10-28T04:59:22.187Z,90.80
2022-10-28T05:01:49.978Z,90.62
2022-10-28T05:04:17.920Z,90.58
2022-10-28T05:06:45.898Z,90.61
2022-10-28T05:09:13.938Z,90.66
2022-10-28T05:11:41.720Z,90.43
2022-10-28T05:14:09.424Z,90.44
2022-10-28T05:16:37.204Z,90.53
2022-10-28T05:19:05.141Z,90.29
2022-10-28T05:21:33.331Z,90.60
2022-10-28T05:24:01.163Z,90.32
2022-10-28T05:26:29.044Z,90.51
2022-10-28T05:28:56.890Z,90.24
2022-10-28T05:31:24.955Z,90.31
2022-10-28T05:33:52.807Z,90.19
2022-10-28T05:36:20.890Z,90.23
2022-10-28T05:38:49.919Z,90.34
2022-10-28T05:41:17.806Z,90.35
2022-10-28T05:43:45.516Z,90.40
2022-10-28T05:46:13.727Z,90.35
2022-10-28T05:48:41.439Z,90.12
2022-10-28T05:51:09.103Z,90.43
2022-10-28T05:53:36.879Z,90.46
2022-10-28T05:56:04.863Z,90.58
2022-10-28T05:58:32.986Z,90.54
2022-10-28T06:01:01.016Z,90.59
2022-10-28T06:03:31.200Z,90.57
2022-10-28T06:05:59.568Z,90.48
2022-10-28T06:08:28.989Z,90.33
2022-10-28T06:10:55.528Z,90.34
2022-10-28T06:13:23.288Z,90.22
2022-10-28T06:15:56.105Z,90.18
2022-10-28T06:18:24.080Z,90.14
2022-10-28T06:20:53.652Z,90.02
2022-10-28T06:23:22.589Z,90.06
2022-10-28T06:25:50.631Z,89.89
2022-10-28T06:28:18.318Z,89.80
2022-10-28T06:30:46.225Z,89.69
2022-10-28T06:33:14.245Z,89.53
2022-10-28T06:35:42.168Z,89.36
2022-10-28T06:38:09.911Z,89.26
2022-10-28T06:40:37.799Z,89.19
2022-10-28T06:43:06.930Z,89.10
2022-10-28T06:45:34.809Z,89.07
2022-10-28T06:48:06.553Z,88.84
2022-10-28T06:50:35.990Z,88.71
2022-10-28T06:53:04.792Z,88.43
2022-10-28T06:55:32.734Z,88.27
2022-10-28T06:58:03.276Z,87.94
2022-10-28T07:00:37.132Z,88.00
2022-10-28T07:03:06.390Z,87.78
2022-10-28T07:05:34.280Z,87.56
2022-10-28T07:08:02.156Z,87.31
2022-10-28T07:10:30.198Z,87.18
2022-10-28T07:12:58.135Z,86.95
2022-10-28T07:15:26.263Z,86.50
2022-10-28T07:17:58.484Z,86.41
2022-10-28T07:20:28.213Z,86.14
2022-10-28T07:23:00.911Z,85.97
2022-10-28T07:25:31.093Z,85.79
2022-10-28T07:28:00.889Z,85.49
2022-10-28T07:30:29.452Z,85.36
2022-10-28T07:33:01.332Z,85.20
2022-10-28T07:35:29.566Z,85.12
2022-10-28T07:37:58.482Z,85.02
2022-10-28T07:40:26.864Z,84.76
2022-10-28T07:42:55.303Z,84.61
2022-10-28T07:45:23.235Z,84.37
2022-10-28T07:47:51.385Z,84.37
2022-10-28T07:50:19.542Z,84.20
2022-10-28T07:52:47.358Z,84.05
2022-10-28T07:55:15.810Z,83.93
2022-10-28T07:57:43.540Z,83.88
2022-10-28T08:00:11.676Z,83.78
2022-10-28T08:02:40.289Z,83.57
2022-10-28T08:05:08.323Z,83.23
2022-10-28T08:07:38.679Z,83.21
2022-10-28T08:10:07.222Z,83.10
2022-10-28T08:12:34.993Z,83.05
2022-10-28T08:15:03.016Z,83.00
2022-10-28T08:17:31.101Z,82.84
2022-10-28T08:19:58.993Z,82.78
2022-10-28T08:22:27.227Z,82.59
2022-10-28T08:24:55.188Z,82.36
2022-10-28T08:27:23.428Z,82.19
2022-10-28T08:29:53.419Z,82.01
2022-10-28T08:32:21.292Z,81.74
2022-10-28T08:34:49.122Z,81.55
2022-10-28T08:37:16.938Z,81.45
2022-10-28T08:39:44.772Z,81.19
2022-10-28T08:42:34.726Z,81.09
2022-10-28T08:45:24.034Z,80.91
2022-10-28T08:48:03.844Z,80.63
2022-10-28T08:50:34.841Z,80.24
2022-10-28T08:53:55.101Z,79.87
2022-10-28T08:56:31.657Z,79.40
2022-10-28T08:59:01.471Z,79.42
2022-10-28T09:01:46.137Z,79.30
2022-10-28T09:04:32.387Z,79.18
2022-10-28T09:07:01.922Z,78.87
2022-10-28T09:09:30.574Z,78.86
2022-10-28T09:12:17.119Z,78.57
2022-10-28T09:15:18.029Z,78.55
2022-10-28T09:17:55.405Z,78.17
2022-10-28T09:20:34.040Z,78.15
2022-10-28T09:23:33.864Z,77.86
2022-10-28T09:26:24.564Z,77.61
2022-10-28T09:29:26.589Z,77.44
2022-10-28T09:32:01.626Z,77.29
2022-10-28T09:34:43.944Z,77.01
2022-10-28T09:37:28.066Z,76.64
2022-10-28T09:40:27.400Z,76.40
2022-10-28T09:43:02.055Z,76.10
2022-10-28T09:45:32.630Z,75.81
2022-10-28T09:48:14.554Z,75.36
2022-10-28T09:50:42.727Z,74.98
2022-10-28T09:53:59.538Z,74.64
2022-10-28T09:56:29.945Z,74.16
2022-10-28T09:59:01.283Z,73.83
2022-10-28T10:01:49.139Z,73.32
2022-10-28T10:04:35.788Z,73.04
2022-10-28T10:07:09.910Z,72.91
2022-10-28T10:09:57.214Z,72.65
2022-10-28T10:12:26.774Z,72.37
2022-10-28T10:15:19.176Z,72.06
2022-10-28T10:17:48.028Z,71.74
2022-10-28T10:20:17.668Z,71.34
2022-10-28T10:23:22.585Z,70.91
2022-10-28T10:26:12.510Z,70.51
2022-10-28T10:28:51.578Z,70.19
2022-10-28T10:31:26.904Z,69.66
2022-10-28T10:33:58.023Z,69.40
2022-10-28T10:36:31.594Z,68.91
2022-10-28T10:39:02.113Z,68.78
2022-10-28T10:41:47.341Z,68.12
2022-10-28T10:44:20.908Z,67.87
2022-10-28T10:47:05.792Z,66.97
2022-10-28T10:49:35.814Z,66.88
2022-10-28T10:52:28.445Z,66.44
2022-10-28T10:55:03.050Z,65.90
2022-10-28T10:57:33.510Z,65.47
2022-10-28T11:00:01.374Z,65.06
2022-10-28T11:02:36.260Z,64.41
2022-10-28T11:05:08.429Z,63.50
2022-10-28T11:07:39.999Z,62.71
2022-10-28T11:10:25.130Z,62.41
2022-10-28T11:12:58.862Z,62.36
2022-10-28T11:15:30.197Z,61.68
2022-10-28T11:18:21.052Z,60.18
2022-10-28T11:20:57.803Z,60.02
2022-10-28T11:23:49.134Z,59.58
2022-10-28T11:26:21.518Z,58.45
2022-10-28T11:29:17.751Z,58.49
2022-10-28T11:32:05.543Z,58.17
2022-10-28T11:34:57.846Z,57.41
2022-10-28T11:37:45.209Z,56.72
2022-10-28T11:40:50.287Z,55.96
2022-10-28T11:43:34.559Z,54.15
2022-10-28T11:46:24.062Z,52.60
2022-10-28T11:49:20.890Z,51.27
2022-10-28T11:52:01.049Z,51.18
2022-10-28T11:54:53.777Z,51.77
2022-10-28T11:57:38.423Z,50.35
2022-10-28T12:00:20.887Z,49.62
2022-10-28T12:03:10.091Z,49.21
2022-10-28T12:05:50.436Z,49.90
2022-10-28T12:08:52.775Z,48.89
2022-10-28T12:11:57.589Z,47.98
2022-10-28T12:14:46.699Z,47.27
2022-10-28T12:17:29.770Z,46.80
2022-10-28T12:20:03.517Z,46.23
2022-10-28T12:22:53.175Z,45.04
2022-10-28T12:25:29.180Z,45.53
2022-10-28T12:28:23.184Z,45.29
2022-10-28T12:31:18.464Z,44.90
2022-10-28T12:33:49.846Z,45.41
2022-10-28T12:36:41.962Z,45.03
2022-10-28T12:39:17.467Z,44.34
2022-10-28T12:42:22.737Z,42.73
2022-10-28T12:44:57.070Z,43.27
2022-10-28T12:47:43.552Z,43.17
2022-10-28T12:50:45.886Z,42.47
2022-10-28T12:53:44.725Z,41.16
2022-10-28T12:56:20.012Z,41.53
2022-10-28T12:59:06.694Z,41.30
2022-10-28T13:01:35.322Z,40.50
2022-10-28T13:04:04.016Z,40.27
2022-10-28T13:06:51.755Z,39.34
2022-10-28T13:09:37.946Z,38.74
2022-10-28T13:12:16.026Z,38.31
2022-10-28T13:15:30.776Z,38.76
2022-10-28T13:18:35.501Z,38.62
2022-10-28T13:21:23.948Z,38.71
2022-10-28T13:24:34.283Z,38.09
2022-10-28T13:27:04.984Z,37.97
2022-10-28T13:29:35.098Z,38.31
2022-10-28T13:32:40.822Z,37.05
2022-10-28T13:35:35.983Z,36.43
2022-10-28T13:38:10.931Z,36.99
2022-10-28T13:40:38.738Z,36.82
2022-10-28T13:43:20.753Z,37.00
2022-10-28T13:46:06.231Z,36.44
2022-10-28T13:48:43.126Z,35.99
2022-10-28T13:51:10.867Z,35.57
2022-10-28T13:53:45.256Z,35.71
2022-10-28T13:56:27.660Z,35.29
2022-10-28T13:59:03.566Z,35.06
2022-10-28T14:01:56.757Z,35.90
2022-10-28T14:04:38.618Z,36.02
2022-10-28T14:07:21.815Z,35.83
2022-10-28T14:09:52.768Z,36.11
2022-10-28T14:12:32.765Z,35.70
2022-10-28T14:15:15.479Z,35.57
2022-10-28T14:17:49.276Z,35.07
2022-10-28T14:20:41.865Z,35.05
2022-10-28T14:23:27.558Z,35.29
2022-10-28T14:25:56.133Z,35.50
2022-10-28T14:28:41.640Z,35.65
2022-10-28T14:31:39.278Z,35.33
2022-10-28T14:34:13.143Z,35.00
2022-10-28T14:36:58.727Z,35.13
2022-10-28T14:39:41.111Z,35.00
2022-10-28T14:42:27.176Z,35.27
2022-10-28T14:45:20.683Z,35.48
2022-10-28T14:48:21.483Z,35.66
2022-10-28T14:50:52.504Z,35.65
2022-10-28T14:53:27.948Z,35.79
2022-10-28T14:56:24.541Z,35.96
2022-10-28T14:58:54.966Z,36.22
2022-10-28T15:01:59.181Z,36.40
2022-10-28T15:04:28.717Z,36.59
2022-10-28T15:06:56.977Z,36.60
2022-10-28T15:09:44.156Z,36.96
2022-10-28T15:12:16.821Z,37.36
2022-10-28T15:14:52.940Z,37.80
2022-10-28T15:17:42.555Z,38.34
2022-10-28T15:20:31.969Z,38.53
2022-10-28T15:23:20.519Z,39.10
2022-10-28T15:26:08.271Z,39.33
2022-10-28T15:28:37.252Z,39.73
2022-10-28T15:31:05.270Z,40.03
2022-10-28T15:33:40.140Z,40.49
2022-10-28T15:36:23.457Z,40.85
2022-10-28T15:39:07.267Z,41.36
2022-10-28T15:41:49.268Z,41.74
2022-10-28T15:44:38.115Z,41.90
2022-10-28T15:47:24.727Z,42.27
2022-10-28T15:50:16.695Z,42.69
2022-10-28T15:52:48.142Z,43.06
2022-10-28T15:58:41.428Z,43.64
2022-10-28T16:01:35.697Z,43.94
2022-10-28T16:04:05.765Z,44.18
2022-10-28T16:06:56.916Z,44.45
2022-10-28T16:09:29.626Z,44.74
2022-10-28T16:12:01.832Z,45.07
2022-10-28T16:14:39.703Z,45.47
2022-10-28T16:17:15.669Z,45.80
2022-10-28T16:19:56.993Z,46.15
2022-10-28T16:22:27.376Z,46.54
2022-10-28T16:24:58.152Z,46.95
2022-10-28T16:27:28.648Z,47.38
2022-10-28T16:29:56.837Z,47.68
2022-10-28T16:32:47.271Z,48.22
2022-10-28T16:35:20.386Z,48.65
2022-10-28T16:37:53.763Z,49.07
2022-10-28T16:43:16.794Z,49.75
2022-10-28T16:45:44.646Z,50.03
2022-10-28T16:48:13.908Z,50.52
2022-10-28T16:50:45.130Z,50.98
2022-10-28T16:53:30.803Z,51.41
2022-10-28T16:56:01.824Z,51.81
2022-10-28T16:58:30.141Z,52.10
2022-10-28T17:01:19.941Z,52.39
2022-10-28T17:03:47.814Z,52.79
2022-10-28T17:06:15.407Z,53.06
2022-10-28T17:09:01.792Z,53.49
2022-10-28T17:14:21.374Z,53.99
2022-10-28T17:17:06.695Z,54.10
2022-10-28T17:19:52.260Z,54.50
2022-10-28T17:22:20.024Z,54.82
2022-10-28T17:24:47.630Z,55.16
2022-10-28T17:27:15.468Z,55.37
2022-10-28T17:29:43.289Z,55.59
2022-10-28T17:32:10.944Z,55.93
2022-10-28T17:34:56.775Z,56.34
2022-10-28T17:37:24.788Z,56.50
2022-10-28T17:39:52.522Z,56.88
2022-10-28T17:42:20.795Z,57.15
2022-10-28T17:44:48.726Z,57.61
2022-10-28T17:47:16.430Z,57.78
2022-10-28T17:50:02.307Z,58.03
2022-10-28T17:52:34.191Z,58.22
2022-10-28T17:55:06.685Z,58.34
2022-10-28T17:57:34.751Z,58.43
2022-10-28T18:00:20.197Z,58.68
2022-10-28T18:02:48.323Z,58.79
2022-10-28T18:05:35.974Z,58.94
2022-10-28T18:08:03.971Z,59.17
2022-10-28T18:10:57.235Z,59.27
2022-10-28T18:13:32.982Z,59.42
2022-10-28T18:16:21.926Z,59.61
2022-10-28T18:19:09.986Z,59.79
2022-10-28T18:21:38.175Z,59.93
2022-10-28T18:24:06.237Z,60.23
2022-10-28T18:26:35.986Z,60.34
2022-10-28T18:29:08.248Z,60.53
2022-10-28T18:31:37.742Z,60.70
2022-10-28T18:34:05.734Z,60.97
2022-10-28T18:36:51.941Z,61.09
2022-10-28T18:39:38.141Z,61.13
2022-10-28T18:42:24.015Z,61.28
2022-10-28T18:44:58.373Z,61.30
2022-10-28T18:47:26.320Z,61.45
2022-10-28T18:49:54.480Z,61.52
2022-10-28T18:52:24.712Z,61.58
2022-10-28T18:54:53.259Z,61.64
2022-10-28T18:57:22.128Z,61.76
2022-10-28T19:00:20.117Z,61.81
2022-10-28T19:02:42.195Z,61.78
2022-10-28T19:05:14.186Z,61.86
2022-10-28T19:07:59.307Z,61.88
2022-10-28T19:10:27.102Z,62.18
2022-10-28T19:12:54.680Z,62.27
2022-10-28T19:15:22.674Z,62.41
2022-10-28T19:17:53.213Z,62.41
2022-10-28T19:20:20.994Z,62.63
2022-10-28T19:22:48.928Z,62.77
2022-10-28T19:25:16.833Z,62.81
2022-10-28T19:27:44.506Z,62.92
2022-10-28T19:30:13.697Z,63.14
2022-10-28T19:32:41.711Z,63.19
2022-10-28T19:35:09.562Z,63.31
2022-10-28T19:37:55.294Z,63.47
2022-10-28T19:40:23.163Z,63.61
2022-10-28T19:45:26.463Z,63.62
2022-10-28T19:47:54.332Z,63.69
2022-10-28T19:50:22.309Z,63.74
2022-10-28T19:52:50.448Z,63.81
2022-10-28T19:55:18.575Z,63.98
2022-10-28T19:57:48.947Z,63.95
2022-10-28T20:00:37.461Z,64.18
2022-10-28T20:03:05.321Z,64.18
2022-10-28T20:05:59.130Z,64.36
2022-10-28T20:08:27.220Z,64.48
2022-10-28T20:11:03.815Z,64.52
2022-10-28T20:13:57.421Z,64.60
2022-10-28T20:16:25.924Z,64.84
2022-10-28T20:18:55.231Z,64.82
2022-10-28T20:21:40.992Z,64.96
2022-10-28T20:24:09.005Z,65.06
2022-10-28T20:26:38.714Z,65.17
2022-10-28T20:29:24.253Z,65.21
2022-10-28T20:31:52.413Z,65.37
2022-10-28T20:34:38.042Z,65.36
2022-10-28T20:37:06.281Z,65.60
2022-10-28T20:39:33.914Z,65.70
2022-10-28T20:42:01.604Z,65.67
2022-10-28T20:44:29.491Z,65.85
2022-10-28T20:46:57.082Z,65.88
2022-10-28T20:49:24.974Z,65.94
2022-10-28T20:51:52.736Z,66.07
2022-10-28T20:54:20.333Z,66.31
2022-10-28T20:57:06.025Z,66.37
2022-10-28T20:59:33.831Z,66.43
2022-10-28T21:02:01.675Z,66.69
2022-10-28T21:04:47.534Z,66.72
2022-10-28T21:07:15.476Z,66.78
2022-10-28T21:09:43.023Z,66.90
2022-10-28T21:12:10.891Z,67.13
2022-10-28T21:14:38.706Z,67.22
2022-10-28T21:17:24.480Z,67.19
2022-10-28T21:19:52.345Z,67.26
2022-10-28T21:22:20.022Z,67.60
2022-10-28T21:24:47.983Z,67.66
2022-10-28T21:27:15.852Z,67.73
2022-10-28T21:30:01.638Z,67.72
2022-10-28T21:32:29.408Z,67.93
2022-10-28T21:34:56.998Z,68.03
2022-10-28T21:37:24.788Z,68.09
2022-10-28T21:40:10.994Z,68.30
2022-10-28T21:42:56.494Z,68.41
2022-10-28T21:45:41.833Z,68.47
2022-10-28T21:48:10.083Z,68.60
2022-10-28T21:50:37.657Z,68.61
2022-10-28T21:53:05.285Z,68.68
2022-10-28T21:55:45.947Z,68.85
2022-10-28T21:58:32.652Z,69.20
2022-10-28T22:01:10.101Z,69.36
2022-10-28T22:03:38.675Z,69.46
2022-10-28T22:06:07.379Z,69.45
2022-10-28T22:08:35.087Z,69.41
2022-10-28T22:11:05.031Z,69.66
2022-10-28T22:13:34.343Z,69.80
2022-10-28T22:16:04.846Z,69.85
2022-10-28T22:18:50.575Z,69.90
2022-10-28T22:21:24.321Z,70.02
2022-10-28T22:23:52.388Z,70.17
2022-10-28T22:26:22.557Z,70.09
2022-10-28T22:28:51.012Z,70.20
2022-10-28T22:31:36.267Z,70.23
2022-10-28T22:34:05.613Z,70.24
2022-10-28T22:36:33.270Z,70.32
2022-10-28T22:39:01.086Z,70.32
2022-10-28T22:41:31.431Z,70.37
2022-10-28T22:44:02.609Z,70.28
2022-10-28T22:46:36.849Z,70.21
2022-10-28T22:49:04.686Z,70.21
2022-10-28T22:51:33.197Z,70.35
2022-10-28T22:54:01.063Z,70.26
2022-10-28T22:56:28.930Z,70.54
2022-10-28T22:59:14.031Z,70.58
2022-10-28T23:01:41.807Z,70.60
2022-10-28T23:04:11.310Z,70.63
2022-10-28T23:06:39.447Z,70.64
2022-10-28T23:09:24.592Z,70.62
2022-10-28T23:11:52.965Z,70.74
2022-10-28T23:14:20.632Z,70.74
2022-10-28T23:16:48.965Z,70.68
2022-10-28T23:19:17.234Z,70.60
2022-10-28T23:21:44.998Z,70.74
2022-10-28T23:24:12.613Z,70.71
2022-10-28T23:26:40.634Z,70.70
2022-10-28T23:29:26.116Z,70.78
2022-10-28T23:31:53.856Z,70.68
2022-10-28T23:34:21.493Z,71.00
2022-10-28T23:36:54.002Z,70.95
2022-10-28T23:39:39.343Z,70.96
2022-10-28T23:42:07.899Z,70.96
2022-10-28T23:44:35.620Z,70.86
2022-10-28T23:47:03.732Z,70.88
2022-10-28T23:49:49.086Z,71.11
2022-10-28T23:52:34.433Z,71.18
2022-10-28T23:55:02.256Z,71.33
2022-10-28T23:57:29.904Z,71.34
2022-10-28T23:59:57.587Z,71.42
